Main page
METAR-TAF:

METAR-TAF

Airports :

Yakutsk, Russia

Yakutsk Airport

latitude: 62-01N, longitude: 129-43E, elevation: 103 m

Current weather observation

The report was made 22 minutes ago, at 02:30 UTC
Wind 10 kt from the West/Northwest
Temperature 9°C
Humidity 25%
Pressure 1020 hPa
Visibility 10 km or more
no clouds below 1500 m and no cumulonimbus

METAR: UEEE 250230Z 30005MPS CAVOK 09/M10 Q1020 R23L/09//60 NOSIG RMK QFE756

Time: 11:52 (02:52 UTC)

Forecast

The report was made 52 minutes ago, at 02:00 UTC
Forecast valid from 25 at 03 UTC to 26 at 09 UTC
Wind 10 kt from the West with gusts up to 19 kt
Visibility 10 km or more
Scattered clouds at a height of 3000 ft, Cumulonimbus.
Broken clouds at a height of 10000 ft

TAF: UEEE 250200Z 2503/2609 26005G10MPS 9999 SCT030CB BKN100

Weather observations and forecasts of more than 4000 airports (METAR and TAF reports).

The available stations are represented by yellow and red dots on the map.

Hover mouse over dot to see the name of the station.

Then click to see weather observations and forecasts.

To change the map : click on the green buttons with a black cross to zoom in, on the green button with a dash to zoom out, or on the green arrows for adjacent maps.


METAR-TAF: